Time;durP1;ratioP1;P1;durP2;ratioP2;P2;SDS_P1;SDS_P2;PMS_P1;PMS_P2;Temp;Humidity;BMP_temperature;BMP_pressure;BME280_temperature;BME280_humidity;BME280_pressure;Samples;Min_cycle;Max_cycle;Signal;HPM_P1;HPM_P2
2023/02/17 00:00:34;;;;;;;26.20;15.10;;;;;;;2.77;69.98;97181.66;109275;1271;22531;-81
2023/02/17 00:03:25;;;;;;;26.30;14.80;;;;;;;2.80;70.12;97180.46;109221;1271;22544;-81
2023/02/17 00:05:56;;;;;;;21.30;13.80;;;;;;;2.78;70.08;97186.48;109290;1264;22515;-81
2023/02/17 00:08:27;;;;;;;25.20;15.30;;;;;;;2.71;70.10;97181.84;109041;1268;22553;-81
2023/02/17 00:10:59;;;;;;;27.20;14.90;;;;;;;2.70;70.19;97183.95;109029;1269;22575;-81
2023/02/17 00:13:30;;;;;;;24.50;15.40;;;;;;;2.73;70.33;97186.77;109071;1272;22521;-81
2023/02/17 00:16:08;;;;;;;23.90;14.00;;;;;;;2.76;70.33;97185.90;109059;1272;22594;-81
2023/02/17 00:18:39;;;;;;;22.70;14.30;;;;;;;2.73;70.26;97182.90;109072;1271;22531;-81
2023/02/17 00:21:19;;;;;;;23.80;13.10;;;;;;;2.75;70.37;97183.30;109077;1271;26176;-81
2023/02/17 00:23:51;;;;;;;22.90;14.20;;;;;;;2.74;70.40;97183.83;109163;1268;22557;-81
2023/02/17 00:26:23;;;;;;;26.10;14.80;;;;;;;2.75;70.44;97185.19;109139;1269;22528;-81
2023/02/17 00:28:55;;;;;;;24.90;15.00;;;;;;;2.76;70.46;97183.65;109149;1271;32107;-81
2023/02/17 00:31:26;;;;;;;23.90;15.30;;;;;;;2.81;70.42;97187.23;109148;1265;22553;-81
2023/02/17 00:33:57;;;;;;;20.00;12.20;;;;;;;2.83;70.28;97190.13;109129;1265;23053;-81
2023/02/17 00:36:29;;;;;;;21.60;13.60;;;;;;;2.83;70.30;97186.45;109168;1271;22542;-81
2023/02/17 00:39:00;;;;;;;26.90;15.70;;;;;;;2.83;70.20;97183.73;109000;1271;22520;-81
2023/02/17 00:41:31;;;;;;;25.20;15.00;;;;;;;2.80;70.22;97185.42;109224;1264;22531;-81
2023/02/17 00:44:02;;;;;;;23.50;14.10;;;;;;;2.75;70.25;97182.36;109124;1271;22552;-81
2023/02/17 00:46:33;;;;;;;22.90;13.40;;;;;;;2.75;70.42;97179.90;109129;1265;22523;-82
2023/02/17 00:49:05;;;;;;;24.20;13.00;;;;;;;2.74;70.42;97177.14;109145;1271;23416;-81
2023/02/17 00:51:36;;;;;;;21.10;12.20;;;;;;;2.73;70.68;97173.45;109169;1265;22524;-81
2023/02/17 00:54:10;;;;;;;25.10;14.00;;;;;;;2.74;70.65;97173.28;109172;1271;22533;-80
2023/02/17 00:56:41;;;;;;;17.40;10.10;;;;;;;2.70;70.70;97170.45;109148;1271;22602;-81
2023/02/17 00:59:12;;;;;;;22.40;13.70;;;;;;;2.68;70.83;97168.45;109181;1271;22587;-82
2023/02/17 01:01:43;;;;;;;21.80;10.60;;;;;;;2.63;70.94;97166.34;109185;1271;22533;-81
2023/02/17 01:04:14;;;;;;;20.60;12.80;;;;;;;2.62;71.10;97161.48;109106;1264;25257;-81
2023/02/17 01:06:45;;;;;;;26.80;16.50;;;;;;;2.60;71.21;97167.30;109141;1271;25241;-81
2023/02/17 01:09:17;;;;;;;24.00;13.20;;;;;;;2.57;71.21;97161.70;109011;1272;22534;-81
2023/02/17 01:11:48;;;;;;;23.50;14.90;;;;;;;2.53;71.08;97153.88;109147;1271;22636;-81
2023/02/17 01:14:19;;;;;;;22.90;14.80;;;;;;;2.48;71.19;97154.87;109162;1271;23297;-81
2023/02/17 01:16:51;;;;;;;26.00;15.60;;;;;;;2.44;71.17;97154.59;109131;1265;22520;-80
2023/02/17 01:19:22;;;;;;;24.30;11.80;;;;;;;2.41;71.21;97151.72;109191;1271;25370;-80
2023/02/17 01:21:53;;;;;;;22.60;13.90;;;;;;;2.39;71.46;97148.82;109106;1264;24434;-80
2023/02/17 01:24:24;;;;;;;23.50;13.50;;;;;;;2.35;71.55;97148.04;109119;1271;22588;-80
2023/02/17 01:26:55;;;;;;;19.50;10.90;;;;;;;2.35;71.55;97146.80;109029;1264;24381;-80
2023/02/17 01:29:26;;;;;;;21.00;10.90;;;;;;;2.29;71.86;97145.84;109071;1271;22525;-80
2023/02/17 01:31:57;;;;;;;22.40;13.50;;;;;;;2.25;71.99;97146.70;109042;1265;23329;-80
2023/02/17 01:34:28;;;;;;;25.20;15.40;;;;;;;2.23;71.99;97143.33;109185;1271;25281;-81
2023/02/17 01:36:59;;;;;;;22.70;13.10;;;;;;;2.20;72.19;97141.63;109161;1271;25303;-80
2023/02/17 01:39:30;;;;;;;23.70;14.20;;;;;;;2.19;72.31;97133.98;109169;1264;22538;-80
2023/02/17 01:42:01;;;;;;;24.90;15.70;;;;;;;2.18;72.37;97132.15;109164;1265;22522;-81
2023/02/17 01:44:34;;;;;;;25.00;14.50;;;;;;;2.20;72.45;97129.48;109100;1271;22521;-80
2023/02/17 01:47:05;;;;;;;20.90;12.30;;;;;;;2.22;72.32;97125.20;109086;1271;22587;-80
2023/02/17 01:49:39;;;;;;;19.90;10.10;;;;;;;2.23;72.57;97116.17;109032;1265;23255;-81
2023/02/17 01:52:16;;;;;;;20.30;10.10;;;;;;;2.24;72.68;97113.19;109018;1260;22662;-80
2023/02/17 01:54:50;;;;;;;22.40;12.40;;;;;;;2.24;72.91;97112.21;109006;1270;22572;-81
2023/02/17 01:57:26;;;;;;;25.30;13.90;;;;;;;2.23;73.04;97111.73;109042;1268;23191;-81
2023/02/17 01:59:58;;;;;;;25.50;13.70;;;;;;;2.24;72.93;97110.40;108988;1272;22548;-80
2023/02/17 02:02:30;;;;;;;25.10;13.50;;;;;;;2.22;72.99;97099.73;109022;1273;25373;-81
2023/02/17 02:05:02;;;;;;;20.40;11.40;;;;;;;2.19;73.07;97095.23;108982;1268;22536;-80
2023/02/17 02:07:36;;;;;;;21.20;12.10;;;;;;;2.17;73.18;97087.48;109065;1271;23467;-81
2023/02/17 02:10:10;;;;;;;21.40;11.80;;;;;;;2.16;73.31;97084.27;109301;1265;24144;-80
2023/02/17 02:12:42;;;;;;;22.40;11.60;;;;;;;2.17;73.25;97083.30;109295;1271;22639;-81
2023/02/17 02:15:15;;;;;;;24.80;14.20;;;;;;;2.16;73.24;97085.00;109280;1264;22534;-80
2023/02/17 02:18:06;;;;;;;18.70;10.70;;;;;;;2.14;73.17;97085.30;109259;1271;22726;-80
2023/02/17 02:21:10;;;;;;;23.60;13.30;;;;;;;2.13;73.14;97078.04;109119;1266;25437;-80
2023/02/17 02:24:06;;;;;;;22.80;13.80;;;;;;;2.17;73.26;97073.09;109252;1266;25941;-80
2023/02/17 02:27:10;;;;;;;20.30;11.70;;;;;;;2.17;73.30;97071.04;109309;1269;22523;-81
2023/02/17 02:30:01;;;;;;;16.90;10.30;;;;;;;2.21;73.38;97073.65;109004;1265;47647;-81
2023/02/17 02:32:48;;;;;;;20.20;12.80;;;;;;;2.30;73.24;97073.71;109007;1272;23244;-81
2023/02/17 02:35:25;;;;;;;21.00;10.10;;;;;;;2.30;73.26;97076.23;109022;1272;24246;-81
2023/02/17 02:38:03;;;;;;;19.00;12.10;;;;;;;2.29;73.17;97081.02;108935;1271;169479;-81
2023/02/17 02:40:43;;;;;;;19.80;11.40;;;;;;;2.33;73.43;97081.65;109297;1271;22542;-81
2023/02/17 02:43:15;;;;;;;22.60;12.40;;;;;;;2.32;73.28;97082.54;109316;1259;23416;-81
2023/02/17 02:45:47;;;;;;;23.90;13.80;;;;;;;2.31;73.32;97086.30;109286;1271;22533;-81
2023/02/17 02:48:18;;;;;;;21.90;12.00;;;;;;;2.31;73.24;97085.48;109065;1270;22519;-81
2023/02/17 02:51:05;;;;;;;24.40;14.30;;;;;;;2.30;73.06;97086.91;109013;1273;25276;-81
2023/02/17 02:53:49;;;;;;;23.70;14.50;;;;;;;2.27;72.90;97091.44;108999;1272;22534;-81
2023/02/17 02:56:35;;;;;;;24.30;15.00;;;;;;;2.26;72.77;97089.04;108982;1265;25455;-81
2023/02/17 02:59:18;;;;;;;21.60;14.00;;;;;;;2.25;72.78;97091.98;108991;1249;22584;-81
2023/02/17 03:01:59;;;;;;;20.40;12.50;;;;;;;2.20;72.82;97094.90;109019;1272;22537;-81
2023/02/17 03:04:36;;;;;;;25.40;15.30;;;;;;;2.16;72.87;97098.61;109072;1270;22565;-82
2023/02/17 03:07:19;;;;;;;24.10;14.30;;;;;;;2.13;73.03;97096.51;109100;1273;22526;-81
2023/02/17 03:09:53;;;;;;;18.30;10.10;;;;;;;2.12;72.97;97098.77;109006;1272;22536;-81
2023/02/17 03:12:25;;;;;;;19.70;10.80;;;;;;;2.10;73.19;97099.08;109091;1265;22549;-81
2023/02/17 03:15:03;;;;;;;21.30;12.70;;;;;;;2.10;73.26;97097.91;109031;1272;22545;-81
2023/02/17 03:17:34;;;;;;;25.00;14.70;;;;;;;2.11;73.46;97098.66;108991;1267;24658;-81
2023/02/17 03:20:08;;;;;;;25.20;13.80;;;;;;;2.08;73.52;97097.96;108981;1272;22571;-81
2023/02/17 03:22:43;;;;;;;19.40;12.70;;;;;;;2.07;73.65;97098.45;108972;1266;22595;-81
2023/02/17 03:25:15;;;;;;;22.20;13.10;;;;;;;2.07;73.99;97105.05;109040;1265;22524;-81
2023/02/17 03:27:46;;;;;;;19.50;11.20;;;;;;;2.08;73.92;97096.80;108990;1272;22570;-81
2023/02/17 03:30:17;;;;;;;18.40;11.20;;;;;;;2.14;74.15;97091.79;109048;1268;22534;-81
2023/02/17 03:32:48;;;;;;;23.60;11.30;;;;;;;2.22;74.13;97095.59;109007;1273;24382;-81
2023/02/17 03:35:20;;;;;;;24.20;12.60;;;;;;;2.33;74.29;97090.86;109022;1272;25263;-81
2023/02/17 03:37:51;;;;;;;22.70;12.60;;;;;;;2.41;74.18;97083.27;109003;1272;22514;-81
2023/02/17 03:40:22;;;;;;;19.20;10.40;;;;;;;2.44;74.17;97081.52;109039;1265;22549;-81
2023/02/17 03:42:53;;;;;;;16.60;11.10;;;;;;;2.44;74.20;97083.14;109032;1272;23207;-81
2023/02/17 03:45:24;;;;;;;22.00;10.30;;;;;;;2.43;74.37;97077.06;109033;1267;22544;-81
2023/02/17 03:47:55;;;;;;;29.40;15.50;;;;;;;2.44;74.45;97079.02;109105;1272;25863;-81
2023/02/17 03:50:27;;;;;;;24.90;14.30;;;;;;;2.44;74.57;97084.95;109088;1265;22527;-81
2023/02/17 03:52:58;;;;;;;26.60;14.50;;;;;;;2.48;74.69;97082.69;109069;1272;22530;-81
2023/02/17 03:55:29;;;;;;;20.20;11.00;;;;;;;2.47;74.58;97078.99;109068;1272;22541;-81
2023/02/17 03:58:00;;;;;;;21.20;11.60;;;;;;;2.45;74.62;97071.48;109098;1268;22537;-81
2023/02/17 04:00:31;;;;;;;24.20;14.90;;;;;;;2.41;74.74;97073.70;109074;1272;22531;-81
2023/02/17 04:03:02;;;;;;;22.00;12.50;;;;;;;2.40;74.76;97069.73;109074;1272;22597;-81
2023/02/17 04:05:33;;;;;;;22.00;14.30;;;;;;;2.43;75.05;97069.58;109079;1265;23008;-81
2023/02/17 04:08:05;;;;;;;23.10;12.50;;;;;;;2.47;74.84;97070.83;109176;1265;22572;-81
2023/02/17 04:10:36;;;;;;;21.30;12.30;;;;;;;2.48;75.13;97074.80;109496;1270;25496;-81
2023/02/17 04:13:07;;;;;;;21.90;12.80;;;;;;;2.51;75.15;97077.06;109313;1271;22637;-81
2023/02/17 04:15:38;;;;;;;19.30;10.80;;;;;;;2.52;75.33;97072.23;109317;1270;22525;-81
2023/02/17 04:18:09;;;;;;;22.70;14.10;;;;;;;2.54;75.22;97066.17;109390;1267;26839;-81
2023/02/17 04:20:40;;;;;;;25.50;14.40;;;;;;;2.56;75.20;97060.68;109097;1272;22548;-81
2023/02/17 04:23:13;;;;;;;26.00;14.00;;;;;;;2.59;75.32;97060.89;109094;1265;24907;-81
2023/02/17 04:25:45;;;;;;;24.20;12.90;;;;;;;2.62;75.20;97060.09;109171;1270;22561;-81
2023/02/17 04:28:17;;;;;;;25.80;14.80;;;;;;;2.67;75.07;97053.44;109039;1272;22619;-81
2023/02/17 04:30:50;;;;;;;18.70;10.60;;;;;;;2.70;74.81;97065.21;109076;1272;22527;-81
2023/02/17 04:33:21;;;;;;;22.80;13.70;;;;;;;2.75;74.58;97060.93;109080;1270;22575;-81
2023/02/17 04:35:52;;;;;;;26.80;15.60;;;;;;;2.75;74.53;97069.17;109087;1272;22521;-81
2023/02/17 04:38:24;;;;;;;25.40;15.70;;;;;;;2.75;74.45;97061.45;109043;1272;25380;-81
2023/02/17 04:40:56;;;;;;;24.60;14.30;;;;;;;2.74;74.35;97062.91;109112;1272;23418;-81
2023/02/17 04:43:29;;;;;;;25.20;14.30;;;;;;;2.74;74.37;97057.04;109110;1272;22539;-81
2023/02/17 04:46:00;;;;;;;22.00;12.90;;;;;;;2.71;74.48;97054.66;109076;1272;22581;-81
2023/02/17 04:48:31;;;;;;;23.80;13.10;;;;;;;2.71;74.50;97048.17;109068;1265;22533;-81
2023/02/17 04:51:02;;;;;;;23.00;14.10;;;;;;;2.71;74.41;97056.19;109054;1272;22633;-81
2023/02/17 04:53:33;;;;;;;26.20;12.90;;;;;;;2.70;74.55;97059.39;109014;1273;22758;-81
2023/02/17 04:56:05;;;;;;;25.40;14.90;;;;;;;2.71;74.47;97054.70;109004;1272;22562;-80
2023/02/17 04:58:37;;;;;;;23.40;12.60;;;;;;;2.73;74.45;97051.94;108973;1270;23071;-80
2023/02/17 05:01:08;;;;;;;24.10;12.50;;;;;;;2.76;74.34;97051.86;108975;1259;24270;-80
2023/02/17 05:03:39;;;;;;;19.70;10.80;;;;;;;2.78;74.13;97052.55;108992;1273;24266;-80
2023/02/17 05:06:10;;;;;;;25.40;14.00;;;;;;;2.80;73.91;97059.91;109054;1272;23336;-80
2023/02/17 05:08:43;;;;;;;22.80;13.50;;;;;;;2.89;73.82;97055.06;108998;1268;22584;-80
2023/02/17 05:11:14;;;;;;;23.10;12.70;;;;;;;2.97;73.52;97053.29;108979;1273;22532;-80
2023/02/17 05:13:45;;;;;;;25.50;13.40;;;;;;;3.03;73.33;97052.17;109036;1265;22565;-80
2023/02/17 05:16:16;;;;;;;22.50;13.80;;;;;;;3.04;73.15;97057.80;108980;1273;22542;-81
2023/02/17 05:18:47;;;;;;;16.90;10.40;;;;;;;3.05;72.91;97048.12;108991;1273;22545;-81
2023/02/17 05:21:18;;;;;;;22.20;13.50;;;;;;;3.04;72.78;97052.40;109053;1265;22530;-81
2023/02/17 05:23:49;;;;;;;23.50;12.10;;;;;;;2.99;72.75;97050.77;108993;1271;22550;-80
2023/02/17 05:26:20;;;;;;;18.10;11.00;;;;;;;2.95;72.65;97042.95;109037;1272;24566;-81
2023/02/17 05:28:52;;;;;;;22.80;13.10;;;;;;;2.92;72.68;97037.70;108991;1272;22527;-80
2023/02/17 05:31:23;;;;;;;25.20;13.90;;;;;;;2.92;72.99;97032.70;109018;1272;22614;-80
2023/02/17 05:33:56;;;;;;;21.50;11.70;;;;;;;2.98;73.13;97026.33;109003;1272;25089;-80
2023/02/17 05:36:28;;;;;;;22.00;12.70;;;;;;;3.02;73.01;97018.34;108991;1270;22888;-80
2023/02/17 05:38:59;;;;;;;25.00;13.20;;;;;;;3.08;72.90;97017.77;108983;1272;23392;-81
2023/02/17 05:41:30;;;;;;;18.60;11.10;;;;;;;3.12;72.71;97013.10;108998;1270;22550;-80
2023/02/17 05:44:01;;;;;;;21.90;13.20;;;;;;;3.16;72.60;97010.98;109006;1272;22537;-80
2023/02/17 05:46:33;;;;;;;21.60;12.50;;;;;;;3.20;72.52;97017.54;108950;1265;22533;-80
2023/02/17 05:49:04;;;;;;;18.40;10.50;;;;;;;3.24;72.26;97018.02;108989;1274;23701;-80
2023/02/17 05:51:35;;;;;;;21.00;12.10;;;;;;;3.28;72.13;97025.72;108984;1273;22585;-81
2023/02/17 05:54:07;;;;;;;21.70;13.70;;;;;;;3.30;72.09;97031.05;109000;1274;22554;-80
2023/02/17 05:56:38;;;;;;;20.70;13.70;;;;;;;3.31;72.14;97032.20;108961;1273;22541;-81
2023/02/17 05:59:10;;;;;;;24.70;15.10;;;;;;;3.32;72.06;97030.34;108975;1273;25410;-81
2023/02/17 06:01:41;;;;;;;21.70;10.80;;;;;;;3.33;71.98;97025.48;108975;1268;22531;-81
2023/02/17 06:04:13;;;;;;;23.80;12.20;;;;;;;3.35;71.90;97028.06;108997;1273;22538;-81
2023/02/17 06:06:44;;;;;;;20.90;11.70;;;;;;;3.36;71.74;97029.75;109075;1270;22520;-80
2023/02/17 06:09:16;;;;;;;22.40;13.60;;;;;;;3.34;71.76;97031.64;109034;1268;22570;-81
2023/02/17 06:11:47;;;;;;;24.90;15.20;;;;;;;3.31;71.80;97034.09;109017;1270;22531;-81
2023/02/17 06:14:18;;;;;;;23.20;14.00;;;;;;;3.27;72.01;97028.59;109021;1273;25257;-80
2023/02/17 06:16:49;;;;;;;27.00;16.30;;;;;;;3.22;71.96;97026.91;109024;1273;24283;-81
2023/02/17 06:19:24;;;;;;;25.90;14.80;;;;;;;3.17;72.07;97027.66;109025;1273;56060;-82
2023/02/17 06:21:56;;;;;;;26.50;15.90;;;;;;;3.12;72.21;97023.20;109051;1271;22527;-81
2023/02/17 06:24:27;;;;;;;22.80;13.00;;;;;;;3.11;72.32;97025.17;109037;1268;22526;-81
2023/02/17 06:26:59;;;;;;;26.30;15.60;;;;;;;3.13;72.40;97022.17;109004;1265;22523;-81
2023/02/17 06:29:30;;;;;;;19.70;11.50;;;;;;;3.16;72.44;97019.16;108951;1270;62058;-81
2023/02/17 06:32:01;;;;;;;23.90;10.80;;;;;;;3.19;72.35;97006.23;109031;1273;22562;-81
2023/02/17 06:34:32;;;;;;;20.20;10.20;;;;;;;3.22;72.36;97011.70;108976;1273;24276;-81
2023/02/17 06:37:03;;;;;;;25.20;16.10;;;;;;;3.26;72.31;96999.74;108969;1273;22530;-81
2023/02/17 06:39:35;;;;;;;22.90;14.60;;;;;;;3.34;72.34;96993.48;109000;1273;22527;-81
2023/02/17 06:42:19;;;;;;;22.00;10.40;;;;;;;3.41;72.22;96987.65;108985;1273;22637;-81
2023/02/17 06:44:51;;;;;;;26.10;14.50;;;;;;;3.48;72.27;96983.83;108999;1273;22514;-81
2023/02/17 06:47:22;;;;;;;19.30;12.10;;;;;;;3.51;72.30;96979.58;109023;1273;22526;-81
2023/02/17 06:49:53;;;;;;;22.80;14.70;;;;;;;3.55;72.44;96972.98;108966;1271;22616;-81
2023/02/17 06:52:24;;;;;;;19.60;11.30;;;;;;;3.59;72.44;96969.19;108992;1273;22615;-81
2023/02/17 06:54:56;;;;;;;22.20;15.30;;;;;;;3.62;72.46;96968.87;108978;1273;22535;-81
2023/02/17 06:57:27;;;;;;;20.40;10.80;;;;;;;3.67;72.48;96970.41;109025;1270;22570;-81
2023/02/17 06:59:58;;;;;;;24.20;15.00;;;;;;;3.73;72.43;96970.15;109001;1269;22530;-81
2023/02/17 07:02:29;;;;;;;26.30;16.40;;;;;;;3.78;72.42;96966.23;108988;1273;24221;-81
2023/02/17 07:05:01;;;;;;;23.20;12.60;;;;;;;3.83;72.31;96967.58;108994;1265;22555;-81
2023/02/17 07:07:32;;;;;;;21.60;11.00;;;;;;;3.89;72.44;96973.20;109009;1272;26196;-81
2023/02/17 07:10:07;;;;;;;21.20;11.10;;;;;;;3.95;72.40;96973.80;109070;1266;22520;-81
2023/02/17 07:12:38;;;;;;;26.30;15.00;;;;;;;4.06;72.60;96972.81;109090;1271;22567;-81
2023/02/17 07:15:10;;;;;;;27.50;16.80;;;;;;;4.18;72.92;96979.13;109075;1266;22684;-81
2023/02/17 07:17:41;;;;;;;24.20;14.00;;;;;;;4.28;72.88;96986.27;109083;1268;42622;-81
2023/02/17 07:20:13;;;;;;;26.00;14.30;;;;;;;4.37;72.88;96986.21;109048;1272;23312;-81
2023/02/17 07:22:44;;;;;;;22.60;13.20;;;;;;;4.50;72.98;96993.44;109072;1272;23219;-81
2023/02/17 07:25:15;;;;;;;20.60;10.30;;;;;;;4.59;72.80;96997.46;109062;1272;22524;-81
2023/02/17 07:27:46;;;;;;;24.40;14.80;;;;;;;4.70;72.70;96999.37;108997;1272;71253;-81
2023/02/17 07:30:18;;;;;;;23.40;13.50;;;;;;;4.76;72.59;97007.20;109089;1271;22559;-81
2023/02/17 07:32:49;;;;;;;23.30;13.70;;;;;;;4.80;72.46;97004.77;109084;1272;25460;-80
2023/02/17 07:35:20;;;;;;;23.30;13.10;;;;;;;4.80;72.57;97006.99;109034;1272;22554;-81
2023/02/17 07:37:51;;;;;;;21.00;11.00;;;;;;;4.84;72.68;97007.80;109046;1272;22524;-81
2023/02/17 07:40:23;;;;;;;20.10;11.60;;;;;;;4.90;72.49;97013.85;109076;1272;22541;-80
2023/02/17 07:42:54;;;;;;;19.60;13.10;;;;;;;4.91;72.43;97007.20;109082;1268;22530;-81
2023/02/17 07:45:25;;;;;;;21.90;14.20;;;;;;;4.94;72.25;97014.53;109083;1261;22583;-81
2023/02/17 07:47:56;;;;;;;21.70;12.60;;;;;;;4.95;72.07;97005.73;109025;1272;22565;-81
2023/02/17 07:50:27;;;;;;;20.30;13.40;;;;;;;4.95;71.92;97005.56;109045;1272;25425;-81
2023/02/17 07:52:58;;;;;;;17.60;8.90;;;;;;;4.93;72.04;97003.30;109053;1260;22531;-81
2023/02/17 07:55:29;;;;;;;23.40;15.10;;;;;;;4.89;71.89;97000.13;109061;1272;22546;-81
2023/02/17 07:58:00;;;;;;;23.00;15.10;;;;;;;4.87;72.04;97004.06;109071;1268;58835;-81
2023/02/17 08:00:31;;;;;;;20.70;10.80;;;;;;;4.83;72.24;96999.85;109050;1272;22522;-81
2023/02/17 08:03:02;;;;;;;21.30;13.70;;;;;;;4.81;72.47;97003.80;109081;1272;24508;-81
2023/02/17 08:05:33;;;;;;;27.50;16.60;;;;;;;4.79;72.57;96999.98;109052;1268;24581;-81
2023/02/17 08:13:49;;;;;;;27.60;16.80;;;;;;;4.86;73.38;96975.67;109153;1272;22533;-82
2023/02/17 08:16:20;;;;;;;24.80;15.30;;;;;;;4.90;73.66;96976.91;109196;1271;22532;-81
2023/02/17 08:18:51;;;;;;;22.70;14.20;;;;;;;4.96;73.79;96977.98;109134;1271;31764;-82
2023/02/17 08:21:22;;;;;;;22.40;12.70;;;;;;;5.03;73.96;96974.02;109132;1266;23656;-81
2023/02/17 08:23:54;;;;;;;26.20;14.40;;;;;;;5.11;74.20;96972.30;109139;1268;22562;-81
2023/02/17 08:26:26;;;;;;;20.60;12.90;;;;;;;5.19;74.14;96962.41;109144;1271;22537;-81
2023/02/17 08:28:57;;;;;;;23.30;14.90;;;;;;;5.29;74.35;96953.95;108964;1268;40081;-81
2023/02/17 08:31:30;;;;;;;17.90;10.60;;;;;;;5.35;74.44;96955.44;108951;1273;22580;-81
2023/02/17 08:34:04;;;;;;;25.20;16.90;;;;;;;5.42;74.80;96959.55;109186;1273;24256;-81
2023/02/17 08:36:36;;;;;;;25.90;13.60;;;;;;;5.52;74.96;96957.61;109202;1273;22637;-81
2023/02/17 08:39:10;;;;;;;23.50;16.00;;;;;;;5.63;74.94;96960.27;109100;1273;82707;-81
2023/02/17 08:41:43;;;;;;;21.50;14.70;;;;;;;5.74;75.18;96955.41;110586;1273;23318;-81
2023/02/17 08:44:16;;;;;;;24.90;15.30;;;;;;;5.85;74.81;96956.75;109280;1273;22630;-81
2023/02/17 08:46:48;;;;;;;16.90;11.60;;;;;;;5.98;74.96;96948.86;109004;1271;22695;-81
2023/02/17 08:49:21;;;;;;;18.80;12.20;;;;;;;6.14;74.73;96948.32;108911;1273;44747;-81
2023/02/17 08:51:53;;;;;;;21.50;13.90;;;;;;;6.35;74.41;96945.09;109006;1268;22622;-81
2023/02/17 08:54:26;;;;;;;21.00;11.50;;;;;;;6.58;74.16;96939.29;109007;1273;25249;-81
2023/02/17 08:56:58;;;;;;;18.80;13.10;;;;;;;6.99;73.55;96937.09;108982;1271;23929;-80
2023/02/17 08:59:29;;;;;;;21.30;14.30;;;;;;;7.23;72.05;96933.42;108942;1273;54361;-80
2023/02/17 09:02:01;;;;;;;19.60;11.90;;;;;;;7.31;71.84;96945.70;108988;1269;22520;-80
2023/02/17 09:04:32;;;;;;;19.80;14.20;;;;;;;7.30;71.13;96945.48;109014;1273;24277;-81
2023/02/17 09:07:03;;;;;;;21.30;14.80;;;;;;;7.36;71.09;96934.58;109023;1273;24233;-80
2023/02/17 09:09:34;;;;;;;19.70;13.10;;;;;;;7.51;71.13;96936.60;108984;1271;50099;-80
2023/02/17 09:12:06;;;;;;;19.80;14.10;;;;;;;7.65;70.69;96930.83;108988;1265;22577;-80
2023/02/17 09:14:37;;;;;;;20.30;13.40;;;;;;;7.62;69.97;96932.33;109010;1270;22562;-81
2023/02/17 09:17:08;;;;;;;19.50;13.70;;;;;;;7.48;70.15;96934.80;108988;1273;22567;-81
2023/02/17 09:19:41;;;;;;;18.90;10.70;;;;;;;7.50;70.18;96931.12;108981;1273;33753;-80
2023/02/17 09:22:16;;;;;;;22.10;13.80;;;;;;;7.47;70.01;96936.58;108983;1273;22531;-80
2023/02/17 09:24:47;;;;;;;19.40;12.60;;;;;;;7.44;69.99;96936.44;109009;1273;25614;-80
2023/02/17 09:27:18;;;;;;;20.20;13.00;;;;;;;7.42;70.18;96935.63;108983;1273;22587;-80
2023/02/17 09:29:49;;;;;;;24.70;14.40;;;;;;;7.34;70.09;96929.02;108926;1272;29099;-80
2023/02/17 09:32:21;;;;;;;21.50;12.70;;;;;;;7.33;70.07;96923.52;109030;1273;22937;-80
2023/02/17 09:34:53;;;;;;;18.50;13.60;;;;;;;7.30;70.30;96923.63;109002;1273;22659;-80
2023/02/17 09:37:24;;;;;;;18.10;11.00;;;;;;;7.40;70.63;96919.77;108999;1273;22561;-80
2023/02/17 09:39:55;;;;;;;22.20;11.20;;;;;;;7.51;70.33;96915.88;109012;1269;39538;-80
2023/02/17 09:42:28;;;;;;;22.90;14.30;;;;;;;7.46;70.04;96910.77;108989;1273;22551;-79
2023/02/17 09:45:05;;;;;;;24.20;15.10;;;;;;;7.37;69.93;96913.85;109023;1273;25103;-80
2023/02/17 09:47:40;;;;;;;22.70;12.40;;;;;;;7.26;70.00;96915.16;108915;1273;68875;-80
2023/02/17 09:50:18;;;;;;;20.00;13.50;;;;;;;7.17;70.17;96909.11;108968;1273;22524;-80
2023/02/17 09:52:56;;;;;;;18.50;10.10;;;;;;;7.09;70.67;96903.93;108963;1268;22537;-80
2023/02/17 09:55:32;;;;;;;22.70;14.50;;;;;;;7.04;71.21;96903.41;109002;1270;22487;-80
2023/02/17 09:58:08;;;;;;;18.30;13.30;;;;;;;7.03;71.36;96899.21;109035;1265;36200;-80
2023/02/17 10:00:44;;;;;;;17.90;10.80;;;;;;;6.97;71.64;96892.78;109005;1273;22570;-80
2023/02/17 10:03:20;;;;;;;22.30;14.60;;;;;;;6.88;72.06;96885.83;109004;1272;22536;-80
2023/02/17 10:05:57;;;;;;;21.50;10.30;;;;;;;6.80;72.38;96882.64;109040;1269;22589;-80
2023/02/17 10:08:32;;;;;;;20.40;14.10;;;;;;;6.70;73.15;96869.98;109040;1269;42285;-80
2023/02/17 10:11:10;;;;;;;18.90;13.40;;;;;;;6.60;73.65;96869.23;109125;1272;22555;-80
2023/02/17 10:13:44;;;;;;;15.10;9.00;;;;;;;6.53;74.42;96868.02;109146;1266;22610;-81
2023/02/17 10:16:29;;;;;;;20.90;11.70;;;;;;;6.50;75.42;96862.70;109101;1267;22537;-80
2023/02/17 10:19:06;;;;;;;18.80;10.20;;;;;;;6.40;76.52;96856.79;108983;1269;61510;-80
2023/02/17 10:21:42;;;;;;;22.80;10.10;;;;;;;6.30;77.44;96863.08;108984;1271;22558;-80
2023/02/17 10:24:13;;;;;;;19.30;11.20;;;;;;;6.24;78.77;96867.21;109008;1273;22511;-80
2023/02/17 10:27:08;;;;;;;20.20;13.70;;;;;;;6.20;79.62;96859.54;108993;1274;22530;-80
2023/02/17 10:29:51;;;;;;;14.20;7.80;;;;;;;6.21;80.02;96856.67;108991;1266;76156;-80
2023/02/17 10:32:26;;;;;;;17.50;9.70;;;;;;;6.24;80.94;96844.16;109066;1269;25365;-80
2023/02/17 10:35:16;;;;;;;21.60;11.30;;;;;;;6.22;81.55;96842.14;109036;1272;23561;-80
2023/02/17 10:37:56;;;;;;;16.60;10.90;;;;;;;6.17;81.29;96844.90;109010;1266;78956;-80
2023/02/17 10:40:29;;;;;;;16.90;11.10;;;;;;;6.17;81.65;96842.12;109107;1272;22527;-80
2023/02/17 10:43:04;;;;;;;15.40;10.40;;;;;;;6.19;81.59;96831.30;109076;1272;22706;-79
2023/02/17 10:45:39;;;;;;;17.40;11.90;;;;;;;6.20;81.91;96833.59;108738;1272;22579;-79
2023/02/17 10:48:16;;;;;;;16.80;12.90;;;;;;;6.21;81.88;96835.13;108715;1269;47863;-79
2023/02/17 10:50:48;;;;;;;19.20;12.80;;;;;;;6.19;82.17;96831.20;109039;1272;22555;-79
2023/02/17 10:53:23;;;;;;;16.10;11.60;;;;;;;6.16;82.42;96837.00;108988;1267;22601;-79
2023/02/17 10:56:02;;;;;;;15.60;10.70;;;;;;;6.16;82.72;96836.56;109017;1273;24504;-79
2023/02/17 10:58:37;;;;;;;14.70;8.50;;;;;;;6.18;83.24;96834.02;109070;1272;25338;-80
2023/02/17 11:01:10;;;;;;;13.30;7.90;;;;;;;6.19;83.42;96830.81;109039;1271;24148;-80
2023/02/17 11:03:42;;;;;;;16.90;9.80;;;;;;;6.17;83.77;96827.68;109062;1272;22531;-79
2023/02/17 11:06:21;;;;;;;13.40;8.10;;;;;;;6.13;83.75;96815.23;109082;1272;22524;-79
2023/02/17 11:08:56;;;;;;;16.00;10.60;;;;;;;6.05;83.98;96813.39;108961;1272;32402;-79
2023/02/17 11:11:29;;;;;;;13.30;9.00;;;;;;;5.96;84.55;96807.06;108739;1266;24210;-79
2023/02/17 11:14:10;;;;;;;15.60;10.20;;;;;;;5.85;85.14;96791.25;108752;1268;24244;-79
2023/02/17 11:16:44;;;;;;;15.60;9.00;;;;;;;5.74;86.20;96784.37;108684;1265;24360;-79
2023/02/17 11:19:25;;;;;;;17.30;10.40;;;;;;;5.64;87.00;96788.72;108738;1272;22547;-79
2023/02/17 11:21:57;;;;;;;15.70;9.70;;;;;;;5.57;87.61;96780.81;108706;1272;22536;-79
2023/02/17 11:24:31;;;;;;;16.00;12.30;;;;;;;5.52;88.03;96786.75;108746;1269;22525;-79
2023/02/17 11:27:05;;;;;;;17.40;12.60;;;;;;;5.50;88.35;96777.68;108713;1272;22523;-79
2023/02/17 11:29:36;;;;;;;13.10;8.10;;;;;;;5.48;88.81;96768.64;108698;1271;25642;-80
2023/02/17 11:32:11;;;;;;;14.90;9.00;;;;;;;5.47;89.33;96758.53;108742;1268;23621;-79
2023/02/17 11:34:43;;;;;;;15.20;9.80;;;;;;;5.46;89.37;96763.09;108714;1266;22569;-79
2023/02/17 11:37:25;;;;;;;15.10;9.40;;;;;;;5.46;89.88;96754.79;108729;1272;22675;-79
2023/02/17 11:39:59;;;;;;;17.50;11.20;;;;;;;5.46;89.74;96757.27;109027;1270;22531;-79
2023/02/17 11:42:32;;;;;;;19.20;13.10;;;;;;;5.50;89.91;96759.79;109013;1273;23344;-79
2023/02/17 11:45:22;;;;;;;15.00;10.20;;;;;;;5.56;90.16;96755.36;109014;1273;22535;-80
2023/02/17 11:48:05;;;;;;;12.10;7.40;;;;;;;5.61;90.13;96752.26;108987;1272;22527;-79
2023/02/17 11:50:43;;;;;;;14.60;8.50;;;;;;;5.64;90.28;96748.16;109181;1272;22956;-80